Time;durP1;ratioP1;P1;durP2;ratioP2;P2;SDS_P1;SDS_P2;PMS_P1;PMS_P2;Temp;Humidity;BMP_temperature;BMP_pressure;BME280_temperature;BME280_humidity;BME280_pressure;Samples;Min_cycle;Max_cycle;Signal;HPM_P1;HPM_P2
2022/05/18 00:02:04;;;;;;;2.53;2.10;;;;;;;;;;5115896;28;20504;-74
2022/05/18 00:04:30;;;;;;;3.07;2.40;;;;;;;;;;5115592;28;20930;-73
2022/05/18 00:06:56;;;;;;;4.20;2.30;;;;;;;;;;5115932;28;20514;-73
2022/05/18 00:09:22;;;;;;;3.70;2.40;;;;;;;;;;5115690;28;20901;-74
2022/05/18 00:11:49;;;;;;;4.17;2.67;;;;;;;;;;5116114;28;20475;-73
2022/05/18 00:14:15;;;;;;;4.07;2.37;;;;;;;;;;5115706;28;20430;-73
2022/05/18 00:16:41;;;;;;;2.73;1.87;;;;;;;;;;5114342;28;20414;-73
2022/05/18 00:19:07;;;;;;;3.87;1.90;;;;;;;;;;5097363;28;20428;-73
2022/05/18 00:21:33;;;;;;;6.40;2.37;;;;;;;;;;5115676;28;20850;-73
2022/05/18 00:23:59;;;;;;;2.00;1.70;;;;;;;;;;5115055;28;20937;-73
2022/05/18 00:26:25;;;;;;;5.07;2.37;;;;;;;;;;5115302;28;20478;-73
2022/05/18 00:28:51;;;;;;;5.20;2.20;;;;;;;;;;5115402;28;20413;-74
2022/05/18 00:31:18;;;;;;;3.70;2.23;;;;;;;;;;5115403;28;20405;-73
2022/05/18 00:33:44;;;;;;;3.80;2.20;;;;;;;;;;5114917;28;20976;-73
2022/05/18 00:36:10;;;;;;;2.50;2.30;;;;;;;;;;5115350;28;20410;-73
2022/05/18 00:38:36;;;;;;;4.67;2.10;;;;;;;;;;5114985;28;20910;-73
2022/05/18 00:41:03;;;;;;;5.23;2.40;;;;;;;;;;5115101;28;20410;-73
2022/05/18 00:43:29;;;;;;;5.53;1.80;;;;;;;;;;5114717;28;20410;-73
2022/05/18 00:45:55;;;;;;;4.50;2.43;;;;;;;;;;5115049;28;20947;-73
2022/05/18 00:48:21;;;;;;;3.20;1.90;;;;;;;;;;5115343;28;20377;-73
2022/05/18 00:50:47;;;;;;;4.13;2.00;;;;;;;;;;5115055;28;20386;-74
2022/05/18 00:53:31;;;;;;;6.17;1.93;;;;;;;;;;5114632;28;20414;-73
2022/05/18 00:55:58;;;;;;;4.40;2.67;;;;;;;;;;5115010;28;20402;-74
2022/05/18 00:58:35;;;;;;;2.80;1.70;;;;;;;;;;5114394;28;20410;-73
2022/05/18 01:01:01;;;;;;;3.07;2.30;;;;;;;;;;5114645;28;20390;-73
2022/05/18 01:03:29;;;;;;;3.20;1.80;;;;;;;;;;5114404;28;20414;-73
2022/05/18 01:06:14;;;;;;;2.30;2.10;;;;;;;;;;5114734;28;20503;-73
2022/05/18 01:08:46;;;;;;;2.37;2.17;;;;;;;;;;5114865;28;20426;-73
2022/05/18 01:11:12;;;;;;;3.10;1.70;;;;;;;;;;5114583;28;20412;-73
2022/05/18 01:13:39;;;;;;;3.03;2.03;;;;;;;;;;5114421;28;20828;-74
2022/05/18 01:16:05;;;;;;;3.60;2.60;;;;;;;;;;5114648;28;20459;-74
2022/05/18 01:18:32;;;;;;;4.53;1.87;;;;;;;;;;5114664;28;20413;-74
2022/05/18 01:20:58;;;;;;;4.47;2.10;;;;;;;;;;5114566;28;20463;-74
2022/05/18 01:23:43;;;;;;;2.80;1.70;;;;;;;;;;5114200;28;20388;-73
2022/05/18 01:26:17;;;;;;;3.60;2.20;;;;;;;;;;5114421;28;20506;-73
2022/05/18 01:28:45;;;;;;;2.67;1.93;;;;;;;;;;5114509;28;20867;-73
2022/05/18 01:31:11;;;;;;;2.83;2.30;;;;;;;;;;5114211;28;20380;-73
2022/05/18 01:33:37;;;;;;;2.47;2.20;;;;;;;;;;5113796;28;20981;-73
2022/05/18 01:36:04;;;;;;;4.20;2.63;;;;;;;;;;5114406;28;20402;-73
2022/05/18 01:38:32;;;;;;;3.50;2.23;;;;;;;;;;5114411;28;20442;-73
2022/05/18 01:41:10;;;;;;;4.33;2.13;;;;;;;;;;5114123;28;20463;-73
2022/05/18 01:43:38;;;;;;;3.00;2.17;;;;;;;;;;5113582;28;20490;-73
2022/05/18 01:46:06;;;;;;;2.87;1.70;;;;;;;;;;5114101;28;20451;-73
2022/05/18 01:48:33;;;;;;;5.03;2.33;;;;;;;;;;5114005;28;20489;-73
2022/05/18 01:51:00;;;;;;;4.27;2.23;;;;;;;;;;5114053;28;20810;-74
2022/05/18 01:53:26;;;;;;;2.03;1.63;;;;;;;;;;5113388;28;20872;-74
2022/05/18 01:55:52;;;;;;;3.53;2.30;;;;;;;;;;5112980;28;20420;-73
2022/05/18 01:58:18;;;;;;;2.60;2.40;;;;;;;;;;5112800;28;20453;-73
2022/05/18 02:00:45;;;;;;;4.60;2.50;;;;;;;;;;5113852;28;20853;-73
2022/05/18 02:03:12;;;;;;;5.70;2.10;;;;;;;;;;5113640;28;21388;-74
2022/05/18 02:05:38;;;;;;;2.37;2.20;;;;;;;;;;5113580;28;20957;-73
2022/05/18 02:08:05;;;;;;;4.43;2.73;;;;;;;;;;5112602;28;20898;-73
2022/05/18 02:10:31;;;;;;;5.63;2.63;;;;;;;;;;5112984;28;20716;-72
2022/05/18 02:12:57;;;;;;;2.27;1.90;;;;;;;;;;5113411;28;20424;-74
2022/05/18 02:15:23;;;;;;;3.00;2.40;;;;;;;;;;5113551;28;20491;-73
2022/05/18 02:17:50;;;;;;;3.17;2.30;;;;;;;;;;5113957;28;20473;-73
2022/05/18 02:20:16;;;;;;;4.47;2.47;;;;;;;;;;5113799;28;20383;-72
2022/05/18 02:22:42;;;;;;;6.87;2.37;;;;;;;;;;5113869;28;20418;-73
2022/05/18 02:25:09;;;;;;;3.67;2.17;;;;;;;;;;5095168;28;20464;-73
2022/05/18 02:27:35;;;;;;;2.90;2.60;;;;;;;;;;5113414;28;20489;-73
2022/05/18 02:30:02;;;;;;;2.40;2.17;;;;;;;;;;5113651;28;20376;-73
2022/05/18 02:32:28;;;;;;;3.73;2.30;;;;;;;;;;5113485;28;20434;-73
2022/05/18 02:34:54;;;;;;;3.77;2.33;;;;;;;;;;5112952;28;20867;-72
2022/05/18 02:37:20;;;;;;;2.63;2.40;;;;;;;;;;5113901;28;20882;-74
2022/05/18 02:39:46;;;;;;;3.67;2.70;;;;;;;;;;5113574;28;20395;-73
2022/05/18 02:42:12;;;;;;;6.63;2.90;;;;;;;;;;5112299;28;20414;-73
2022/05/18 02:44:38;;;;;;;3.80;2.40;;;;;;;;;;5112913;28;20501;-73
2022/05/18 02:47:04;;;;;;;4.07;2.53;;;;;;;;;;5112087;28;20807;-73
2022/05/18 02:49:31;;;;;;;5.07;2.47;;;;;;;;;;5112099;28;20474;-73
2022/05/18 02:51:57;;;;;;;6.93;2.80;;;;;;;;;;5113235;28;20402;-73
2022/05/18 02:57:09;;;;;;;4.10;2.30;;;;;;;;;;5113791;28;20405;-73
2022/05/18 02:59:35;;;;;;;4.80;2.47;;;;;;;;;;5113159;28;20766;-73
2022/05/18 03:02:02;;;;;;;3.13;2.20;;;;;;;;;;5113201;28;20428;-73
2022/05/18 03:04:29;;;;;;;5.97;3.10;;;;;;;;;;5111555;28;20415;-73
2022/05/18 03:06:55;;;;;;;2.77;2.33;;;;;;;;;;5113182;28;20486;-73
2022/05/18 03:09:21;;;;;;;5.03;2.80;;;;;;;;;;5112159;28;20471;-73
2022/05/18 03:11:48;;;;;;;3.40;2.33;;;;;;;;;;5113458;28;20912;-73
2022/05/18 03:14:14;;;;;;;3.03;2.70;;;;;;;;;;5112833;28;20436;-73
2022/05/18 03:16:43;;;;;;;2.67;2.27;;;;;;;;;;5113434;28;20390;-74
2022/05/18 03:19:10;;;;;;;4.03;2.13;;;;;;;;;;5113163;28;20402;-73
2022/05/18 03:24:20;;;;;;;6.03;2.50;;;;;;;;;;5116810;28;20400;-73
2022/05/18 03:26:46;;;;;;;2.70;2.50;;;;;;;;;;5115475;28;20457;-73
2022/05/18 03:29:12;;;;;;;6.57;2.90;;;;;;;;;;5116575;28;20467;-74
2022/05/18 03:31:39;;;;;;;2.77;2.23;;;;;;;;;;5116455;28;20380;-73
2022/05/18 03:34:05;;;;;;;3.80;2.57;;;;;;;;;;5114846;28;20478;-73
2022/05/18 03:36:33;;;;;;;3.67;2.77;;;;;;;;;;5116547;28;20399;-74
2022/05/18 03:39:00;;;;;;;5.60;2.47;;;;;;;;;;5116442;28;20418;-73
2022/05/18 03:41:26;;;;;;;5.33;2.97;;;;;;;;;;5115163;28;20409;-73
2022/05/18 03:43:52;;;;;;;3.80;2.80;;;;;;;;;;5115873;28;20819;-75
2022/05/18 03:46:19;;;;;;;2.83;2.40;;;;;;;;;;5116131;28;20895;-74
2022/05/18 03:48:45;;;;;;;3.90;2.60;;;;;;;;;;5116278;28;20410;-73
2022/05/18 03:51:13;;;;;;;6.00;2.80;;;;;;;;;;5116415;28;20409;-74
2022/05/18 03:53:39;;;;;;;2.63;2.43;;;;;;;;;;5115886;28;20469;-73
2022/05/18 03:56:05;;;;;;;4.37;2.50;;;;;;;;;;5114736;28;20400;-73
2022/05/18 03:58:31;;;;;;;3.53;2.40;;;;;;;;;;5116154;28;20461;-73
2022/05/18 04:01:01;;;;;;;4.33;2.50;;;;;;;;;;5116082;28;20388;-73
2022/05/18 04:03:28;;;;;;;3.27;2.77;;;;;;;;;;5115553;28;20936;-73
2022/05/18 04:05:54;;;;;;;4.10;2.77;;;;;;;;;;5114931;28;20436;-73
2022/05/18 04:08:20;;;;;;;3.97;2.77;;;;;;;;;;5114437;28;20391;-74
2022/05/18 04:10:47;;;;;;;4.63;2.90;;;;;;;;;;5115826;28;20434;-72
2022/05/18 04:13:14;;;;;;;6.67;3.07;;;;;;;;;;5115567;28;20384;-73
2022/05/18 04:15:41;;;;;;;5.37;3.47;;;;;;;;;;5114472;28;20501;-73
2022/05/18 04:18:07;;;;;;;5.27;3.00;;;;;;;;;;5115676;28;20821;-73
2022/05/18 04:20:33;;;;;;;3.70;2.63;;;;;;;;;;5114245;28;20414;-73
2022/05/18 04:22:59;;;;;;;4.17;2.40;;;;;;;;;;5115753;28;20922;-73
2022/05/18 04:25:26;;;;;;;3.10;2.27;;;;;;;;;;5115724;28;20433;-73
2022/05/18 04:27:53;;;;;;;3.40;2.73;;;;;;;;;;5115605;28;20410;-73
2022/05/18 04:30:20;;;;;;;4.17;3.40;;;;;;;;;;5115688;28;20486;-73
2022/05/18 04:32:46;;;;;;;3.93;2.90;;;;;;;;;;5114899;28;20440;-73
2022/05/18 04:35:14;;;;;;;7.20;2.80;;;;;;;;;;5114384;28;20419;-73
2022/05/18 04:37:40;;;;;;;4.70;2.50;;;;;;;;;;5114332;28;20409;-73
2022/05/18 04:40:07;;;;;;;4.07;2.43;;;;;;;;;;5115176;28;20409;-73
2022/05/18 04:42:33;;;;;;;5.43;3.17;;;;;;;;;;5115012;28;20409;-73
2022/05/18 04:44:59;;;;;;;5.13;3.03;;;;;;;;;;5114680;28;20404;-73
2022/05/18 04:47:25;;;;;;;4.80;2.67;;;;;;;;;;5114961;28;20810;-73
2022/05/18 04:49:52;;;;;;;4.97;2.67;;;;;;;;;;5115129;28;20483;-74
2022/05/18 04:52:18;;;;;;;4.27;2.50;;;;;;;;;;5115123;28;20807;-73
2022/05/18 04:54:44;;;;;;;4.30;3.20;;;;;;;;;;5113114;28;20480;-73
2022/05/18 04:57:11;;;;;;;4.03;3.10;;;;;;;;;;5113689;28;20799;-75
2022/05/18 04:59:37;;;;;;;3.17;2.80;;;;;;;;;;5113776;28;20406;-73
2022/05/18 05:02:03;;;;;;;3.60;2.50;;;;;;;;;;5114935;28;20418;-73
2022/05/18 05:04:29;;;;;;;3.40;2.80;;;;;;;;;;5114444;28;20416;-73
2022/05/18 05:06:55;;;;;;;4.13;2.40;;;;;;;;;;5114492;28;20927;-73
2022/05/18 05:09:22;;;;;;;4.30;2.50;;;;;;;;;;5114523;28;20383;-73
2022/05/18 05:11:49;;;;;;;3.47;2.57;;;;;;;;;;5114970;28;20410;-73
2022/05/18 05:14:15;;;;;;;3.67;2.20;;;;;;;;;;5114129;28;20422;-73
2022/05/18 05:16:41;;;;;;;3.57;2.60;;;;;;;;;;5113419;28;20385;-73
2022/05/18 05:19:07;;;;;;;4.03;2.97;;;;;;;;;;5114451;28;20506;-73
2022/05/18 05:21:33;;;;;;;3.83;2.20;;;;;;;;;;5114527;28;20425;-75
2022/05/18 05:23:59;;;;;;;2.50;2.13;;;;;;;;;;5114195;28;20434;-75
2022/05/18 05:26:25;;;;;;;5.87;2.77;;;;;;;;;;5113247;28;20526;-75
2022/05/18 05:28:51;;;;;;;4.40;2.90;;;;;;;;;;5114201;28;20406;-74
2022/05/18 05:31:17;;;;;;;4.93;2.47;;;;;;;;;;5114219;28;20377;-75
2022/05/18 05:33:43;;;;;;;4.90;2.47;;;;;;;;;;5113749;28;20503;-75
2022/05/18 05:36:10;;;;;;;5.43;2.70;;;;;;;;;;5114173;28;20509;-75
2022/05/18 05:38:36;;;;;;;6.07;3.10;;;;;;;;;;5114031;28;20895;-73
2022/05/18 05:41:01;;;;;;;3.77;2.20;;;;;;;;;;5114057;28;20417;-75
2022/05/18 05:43:28;;;;;;;6.23;2.87;;;;;;;;;;5113583;28;20817;-72
2022/05/18 05:46:17;;;;;;;6.80;2.40;;;;;;;;;;5114145;28;20809;-73
2022/05/18 05:48:44;;;;;;;7.00;2.63;;;;;;;;;;5114449;28;20451;-73
2022/05/18 05:51:13;;;;;;;3.33;2.63;;;;;;;;;;5113726;28;20441;-74
2022/05/18 05:53:39;;;;;;;2.73;2.40;;;;;;;;;;5113580;28;20906;-74
2022/05/18 05:56:06;;;;;;;4.20;2.67;;;;;;;;;;5113866;28;20865;-73
2022/05/18 05:58:33;;;;;;;4.87;2.80;;;;;;;;;;5113711;28;20410;-73
2022/05/18 06:01:00;;;;;;;5.00;2.23;;;;;;;;;;5113830;28;20413;-73
2022/05/18 06:03:26;;;;;;;7.10;2.97;;;;;;;;;;5112012;28;20428;-73
2022/05/18 06:05:55;;;;;;;3.00;2.37;;;;;;;;;;5113840;28;20465;-74
2022/05/18 06:08:21;;;;;;;5.50;2.83;;;;;;;;;;5113994;28;20398;-73
2022/05/18 06:10:47;;;;;;;4.83;2.90;;;;;;;;;;5112606;28;20922;-73
2022/05/18 06:13:13;;;;;;;4.67;3.10;;;;;;;;;;5112237;28;20478;-73
2022/05/18 06:15:39;;;;;;;5.20;2.30;;;;;;;;;;5113678;28;20432;-73
2022/05/18 06:18:05;;;;;;;6.27;3.40;;;;;;;;;;5113647;28;20492;-74
2022/05/18 06:20:32;;;;;;;4.10;1.93;;;;;;;;;;5113646;28;20389;-74
2022/05/18 06:23:02;;;;;;;4.17;2.27;;;;;;;;;;5113369;28;20409;-73
2022/05/18 06:25:29;;;;;;;5.07;2.80;;;;;;;;;;5113277;28;20432;-72
2022/05/18 06:27:55;;;;;;;3.90;2.27;;;;;;;;;;5113722;28;20402;-73
2022/05/18 06:30:21;;;;;;;4.20;2.30;;;;;;;;;;5113466;28;20501;-73
2022/05/18 06:32:47;;;;;;;4.50;2.47;;;;;;;;;;5113435;28;20417;-73
2022/05/18 06:35:13;;;;;;;5.20;2.20;;;;;;;;;;5111900;28;20482;-73
2022/05/18 06:37:39;;;;;;;3.20;2.20;;;;;;;;;;5113330;28;20421;-73
2022/05/18 06:40:07;;;;;;;8.57;2.47;;;;;;;;;;5096555;28;20410;-73
2022/05/18 06:42:33;;;;;;;4.30;2.23;;;;;;;;;;5086648;28;20460;-74
2022/05/18 06:44:59;;;;;;;5.33;2.63;;;;;;;;;;5092551;28;20441;-74
2022/05/18 06:47:26;;;;;;;2.50;2.30;;;;;;;;;;5092677;28;20488;-74
2022/05/18 06:49:52;;;;;;;5.13;2.33;;;;;;;;;;5113183;28;20439;-73
2022/05/18 06:52:19;;;;;;;6.80;2.27;;;;;;;;;;5112050;28;20432;-75
2022/05/18 06:54:46;;;;;;;4.03;2.40;;;;;;;;;;5112928;28;20508;-75
2022/05/18 06:57:12;;;;;;;4.33;2.40;;;;;;;;;;5114479;28;20455;-73
2022/05/18 06:59:38;;;;;;;2.33;1.97;;;;;;;;;;5116980;28;20458;-73
2022/05/18 07:02:04;;;;;;;5.10;2.27;;;;;;;;;;5117225;28;20414;-73
2022/05/18 07:04:30;;;;;;;2.40;2.17;;;;;;;;;;5116753;28;20428;-74
2022/05/18 07:06:57;;;;;;;3.07;2.40;;;;;;;;;;5117000;28;20513;-74
2022/05/18 07:09:24;;;;;;;3.40;2.30;;;;;;;;;;5117045;28;20412;-73
2022/05/18 07:11:50;;;;;;;3.23;2.33;;;;;;;;;;5116821;28;20413;-74
2022/05/18 07:14:20;;;;;;;2.50;1.90;;;;;;;;;;5116476;28;20833;-74
2022/05/18 07:16:47;;;;;;;5.13;2.20;;;;;;;;;;5117100;28;20464;-74
2022/05/18 07:19:13;;;;;;;3.47;2.30;;;;;;;;;;5117023;28;20405;-74
2022/05/18 07:21:39;;;;;;;3.03;2.57;;;;;;;;;;5116714;28;20420;-75
2022/05/18 07:24:06;;;;;;;5.40;2.87;;;;;;;;;;5116251;28;20421;-74
2022/05/18 07:26:32;;;;;;;2.93;2.30;;;;;;;;;;5116629;28;20460;-74
2022/05/18 07:28:58;;;;;;;5.43;2.60;;;;;;;;;;5116817;28;20405;-75
2022/05/18 07:31:25;;;;;;;2.20;2.00;;;;;;;;;;5116719;28;20456;-75
2022/05/18 07:33:51;;;;;;;4.73;2.83;;;;;;;;;;5116163;28;20426;-75
2022/05/18 07:36:18;;;;;;;5.13;2.90;;;;;;;;;;5116430;28;20410;-75
2022/05/18 07:38:44;;;;;;;3.47;2.83;;;;;;;;;;5116520;28;20815;-74
2022/05/18 07:41:12;;;;;;;4.50;2.60;;;;;;;;;;5116453;28;20497;-74
2022/05/18 07:43:38;;;;;;;4.70;3.27;;;;;;;;;;5115991;28;20402;-75
2022/05/18 07:46:05;;;;;;;2.70;2.50;;;;;;;;;;5115736;28;20468;-75
2022/05/18 07:48:31;;;;;;;3.90;2.90;;;;;;;;;;5116118;28;20459;-75
2022/05/18 07:51:00;;;;;;;6.27;2.90;;;;;;;;;;5114857;28;20791;-75
2022/05/18 07:53:26;;;;;;;7.47;3.20;;;;;;;;;;5114135;28;20770;-75
2022/05/18 07:55:52;;;;;;;5.53;3.30;;;;;;;;;;5086874;28;20423;-76
2022/05/18 07:58:19;;;;;;;6.20;2.83;;;;;;;;;;5095506;28;20413;-75
2022/05/18 08:00:46;;;;;;;8.00;2.53;;;;;;;;;;5095703;28;20414;-75
2022/05/18 08:03:12;;;;;;;5.37;2.80;;;;;;;;;;5090239;28;20467;-73
2022/05/18 08:05:39;;;;;;;2.90;2.60;;;;;;;;;;5085650;28;20506;-75
2022/05/18 08:08:06;;;;;;;5.40;2.47;;;;;;;;;;5088702;28;20822;-75
2022/05/18 08:16:01;;;;;;;4.23;2.30;;;;;;;;;;5095704;28;20493;-74
2022/05/18 08:18:27;;;;;;;4.90;2.10;;;;;;;;;;5095331;28;20405;-74
2022/05/18 08:20:53;;;;;;;4.23;2.30;;;;;;;;;;5095405;28;20927;-75
2022/05/18 08:23:20;;;;;;;3.23;2.20;;;;;;;;;;5095029;28;20531;-75
2022/05/18 08:25:48;;;;;;;4.80;3.27;;;;;;;;;;5093121;28;20497;-75
2022/05/18 08:28:15;;;;;;;2.97;2.13;;;;;;;;;;5093747;28;20770;-74
2022/05/18 08:30:42;;;;;;;2.77;2.50;;;;;;;;;;5095052;28;20434;-74
2022/05/18 08:33:09;;;;;;;5.03;2.10;;;;;;;;;;5094617;28;20427;-74
2022/05/18 08:35:35;;;;;;;5.43;2.27;;;;;;;;;;5094775;28;20510;-75
2022/05/18 08:38:01;;;;;;;8.83;2.20;;;;;;;;;;5095027;28;20944;-75
2022/05/18 08:40:27;;;;;;;4.13;2.27;;;;;;;;;;5094747;28;20418;-75
2022/05/18 08:42:53;;;;;;;2.90;1.80;;;;;;;;;;5094548;28;20772;-75
2022/05/18 08:45:19;;;;;;;5.40;2.10;;;;;;;;;;5093467;28;20827;-74
2022/05/18 08:47:50;;;;;;;3.97;2.07;;;;;;;;;;5094648;28;20407;-75
2022/05/18 08:50:19;;;;;;;3.07;1.80;;;;;;;;;;5094547;28;20407;-75
2022/05/18 08:53:04;;;;;;;2.90;1.83;;;;;;;;;;5094413;28;20407;-75
2022/05/18 08:55:36;;;;;;;2.20;1.93;;;;;;;;;;5094523;28;20430;-75
2022/05/18 08:58:02;;;;;;;2.30;1.80;;;;;;;;;;5093366;28;20942;-75
2022/05/18 09:00:34;;;;;;;2.43;1.60;;;;;;;;;;5093209;28;20404;-73
2022/05/18 09:03:05;;;;;;;5.43;1.93;;;;;;;;;;5092877;28;20487;-73
2022/05/18 09:05:34;;;;;;;5.50;1.80;;;;;;;;;;5094365;28;20427;-72
2022/05/18 09:08:10;;;;;;;2.90;1.60;;;;;;;;;;5093300;28;20447;-73
2022/05/18 09:10:39;;;;;;;2.47;1.63;;;;;;;;;;5094257;28;20410;-76
2022/05/18 09:13:05;;;;;;;3.83;2.10;;;;;;;;;;5093948;28;20456;-73
2022/05/18 09:15:36;;;;;;;3.70;1.80;;;;;;;;;;5094238;28;20491;-74
2022/05/18 09:18:08;;;;;;;19.70;3.23;;;;;;;;;;5094143;28;21012;-76
2022/05/18 09:20:52;;;;;;;4.83;2.10;;;;;;;;;;5093800;28;20446;-74
2022/05/18 09:23:21;;;;;;;14.73;3.23;;;;;;;;;;5093797;28;20506;-74
2022/05/18 09:25:53;;;;;;;5.87;2.30;;;;;;;;;;5093740;28;20458;-76
2022/05/18 09:28:28;;;;;;;2.70;1.77;;;;;;;;;;5092617;28;20425;-74
2022/05/18 09:31:04;;;;;;;4.23;1.90;;;;;;;;;;5093995;28;20417;-75
2022/05/18 09:33:48;;;;;;;4.80;2.00;;;;;;;;;;5093572;28;20426;-74
2022/05/18 09:36:21;;;;;;;2.13;1.60;;;;;;;;;;5092621;28;20918;-73
2022/05/18 09:38:56;;;;;;;2.27;1.77;;;;;;;;;;5093777;28;20411;-73
2022/05/18 09:41:23;;;;;;;4.40;1.90;;;;;;;;;;5093793;28;20925;-74
2022/05/18 09:44:12;;;;;;;4.57;1.67;;;;;;;;;;5092037;28;20446;-74
2022/05/18 09:46:42;;;;;;;2.37;1.73;;;;;;;;;;5093590;28;20461;-74
2022/05/18 09:49:14;;;;;;;2.37;1.70;;;;;;;;;;5093647;28;20909;-73
2022/05/18 09:51:41;;;;;;;6.30;1.90;;;;;;;;;;5093746;28;20395;-74
2022/05/18 09:54:07;;;;;;;2.37;1.50;;;;;;;;;;5093234;28;20426;-73
2022/05/18 09:56:53;;;;;;;2.23;1.67;;;;;;;;;;5092231;28;20501;-74
2022/05/18 09:59:22;;;;;;;4.30;1.77;;;;;;;;;;5093357;28;20760;-73
2022/05/18 10:07:34;;;;;;;2.37;1.77;;;;;;;;;;5093264;28;20457;-74
2022/05/18 10:10:14;;;;;;;3.53;1.70;;;;;;;;;;5093333;28;20410;-73
2022/05/18 10:12:43;;;;;;;2.23;1.60;;;;;;;;;;5093728;28;20394;-74
2022/05/18 10:15:19;;;;;;;1.63;1.53;;;;;;;;;;5092835;28;20836;-73
2022/05/18 10:17:47;;;;;;;3.23;1.77;;;;;;;;;;5093352;28;20399;-74
2022/05/18 10:20:30;;;;;;;2.10;1.47;;;;;;;;;;5093416;28;20718;-74
2022/05/18 10:22:57;;;;;;;3.13;1.70;;;;;;;;;;5093120;28;20895;-74
2022/05/18 10:25:25;;;;;;;2.90;1.60;;;;;;;;;;5091866;28;20469;-73
2022/05/18 10:27:51;;;;;;;3.67;1.87;;;;;;;;;;5091867;28;20490;-74
2022/05/18 10:30:21;;;;;;;5.23;1.97;;;;;;;;;;5093002;28;20890;-74
2022/05/18 10:33:02;;;;;;;2.70;1.40;;;;;;;;;;5095646;28;20426;-74
2022/05/18 10:35:35;;;;;;;1.47;1.37;;;;;;;;;;5097166;28;20426;-74
2022/05/18 10:38:03;;;;;;;2.57;1.57;;;;;;;;;;5097393;28;20539;-74
2022/05/18 10:40:29;;;;;;;1.83;1.67;;;;;;;;;;5097316;28;20410;-74
2022/05/18 10:42:57;;;;;;;2.40;1.60;;;;;;;;;;5095722;28;20438;-74
2022/05/18 10:45:31;;;;;;;2.17;1.53;;;;;;;;;;5096884;28;20874;-75
2022/05/18 10:47:58;;;;;;;2.30;1.43;;;;;;;;;;5097249;28;20413;-75
2022/05/18 10:50:41;;;;;;;2.30;1.40;;;;;;;;;;5097107;28;20839;-74
2022/05/18 10:53:13;;;;;;;1.93;1.47;;;;;;;;;;5096660;28;20407;-74
2022/05/18 10:55:53;;;;;;;6.17;2.40;;;;;;;;;;5095502;28;20534;-74
2022/05/18 10:58:33;;;;;;;3.00;1.50;;;;;;;;;;5096964;28;20428;-74
2022/05/18 11:01:10;;;;;;;2.43;1.60;;;;;;;;;;5096923;28;20411;-73
2022/05/18 11:03:41;;;;;;;2.97;2.00;;;;;;;;;;5096252;28;20883;-74
2022/05/18 11:06:13;;;;;;;2.17;1.30;;;;;;;;;;5097002;28;20455;-74
2022/05/18 11:08:39;;;;;;;3.47;1.63;;;;;;;;;;5097011;28;20406;-73
2022/05/18 11:11:05;;;;;;;2.47;1.30;;;;;;;;;;5096809;28;20441;-74
2022/05/18 11:13:45;;;;;;;3.70;1.67;;;;;;;;;;5096085;28;20407;-73
2022/05/18 11:16:20;;;;;;;1.53;1.40;;;;;;;;;;5096745;28;20467;-74
2022/05/18 11:19:15;;;;;;;2.63;1.83;;;;;;;;;;5096591;28;20410;-74
2022/05/18 11:21:42;;;;;;;1.87;1.40;;;;;;;;;;5078885;28;20428;-74
2022/05/18 11:24:21;;;;;;;2.47;1.57;;;;;;;;;;5095877;28;20430;-75
2022/05/18 11:26:57;;;;;;;2.00;1.80;;;;;;;;;;5096610;28;20450;-75
2022/05/18 11:29:42;;;;;;;2.70;1.30;;;;;;;;;;5095373;28;20506;-74
2022/05/18 11:32:22;;;;;;;5.33;1.83;;;;;;;;;;5095121;28;20431;-73
2022/05/18 11:35:03;;;;;;;3.97;1.70;;;;;;;;;;5094278;28;20434;-74
2022/05/18 11:37:32;;;;;;;1.87;1.50;;;;;;;;;;5096191;28;20776;-74
2022/05/18 11:40:04;;;;;;;2.80;1.43;;;;;;;;;;5095963;28;20421;-74
2022/05/18 11:42:51;;;;;;;1.90;1.53;;;;;;;;;;5095792;28;20407;-74
2022/05/18 11:45:37;;;;;;;4.00;1.87;;;;;;;;;;5096018;28;20805;-74
2022/05/18 11:48:25;;;;;;;2.23;1.60;;;;;;;;;;5081751;28;20850;-74
2022/05/18 11:51:00;;;;;;;2.70;1.57;;;;;;;;;;5094717;28;20421;-74
2022/05/18 11:53:45;;;;;;;2.30;1.67;;;;;;;;;;5095496;28;20403;-75
2022/05/18 11:56:20;;;;;;;3.03;1.80;;;;;;;;;;5095654;28;20766;-74
2022/05/18 11:59:10;;;;;;;1.70;1.60;;;;;;;;;;5095738;28;20410;-75
2022/05/18 12:01:40;;;;;;;2.67;1.40;;;;;;;;;;5095691;28;20414;-74
2022/05/18 12:04:25;;;;;;;1.93;1.50;;;;;;;;;;5094994;28;20577;-74
2022/05/18 12:07:01;;;;;;;1.83;1.37;;;;;;;;;;5095476;28;20466;-73
2022/05/18 12:09:27;;;;;;;2.80;1.50;;;;;;;;;;5095577;28;20425;-73
2022/05/18 12:11:53;;;;;;;2.00;1.50;;;;;;;;;;5095369;28;20403;-73
2022/05/18 12:14:31;;;;;;;3.13;2.00;;;;;;;;;;5093689;28;20453;-73
2022/05/18 12:16:57;;;;;;;1.60;1.27;;;;;;;;;;5094276;28;20779;-72
2022/05/18 12:19:27;;;;;;;2.10;1.60;;;;;;;;;;5095562;28;20402;-73
2022/05/18 12:21:56;;;;;;;2.83;1.43;;;;;;;;;;5083555;28;20424;-73
2022/05/18 12:24:23;;;;;;;5.83;2.10;;;;;;;;;;5073109;28;20439;-72
2022/05/18 12:26:50;;;;;;;2.90;1.70;;;;;;;;;;5090641;28;20455;-73
2022/05/18 12:29:19;;;;;;;3.93;2.03;;;;;;;;;;5095188;28;20406;-73
2022/05/18 12:31:45;;;;;;;2.80;1.40;;;;;;;;;;5095035;28;20421;-73
2022/05/18 12:34:14;;;;;;;1.60;1.27;;;;;;;;;;5094555;28;20431;-73
2022/05/18 12:36:43;;;;;;;1.70;1.37;;;;;;;;;;5094963;28;20422;-73
2022/05/18 12:39:12;;;;;;;2.90;1.83;;;;;;;;;;5094857;28;20503;-73
2022/05/18 12:41:42;;;;;;;2.37;1.53;;;;;;;;;;5094841;28;20472;-73
2022/05/18 12:44:13;;;;;;;3.17;1.77;;;;;;;;;;5094432;28;20419;-74
2022/05/18 12:46:52;;;;;;;3.77;1.80;;;;;;;;;;5093334;28;20469;-73
2022/05/18 12:49:37;;;;;;;2.63;1.30;;;;;;;;;;5094863;28;20414;-73
2022/05/18 12:52:06;;;;;;;1.70;1.50;;;;;;;;;;5094546;28;20731;-73
2022/05/18 12:54:41;;;;;;;2.50;1.20;;;;;;;;;;5093447;28;20790;-73
2022/05/18 12:57:07;;;;;;;3.77;1.70;;;;;;;;;;5094546;28;20410;-73
2022/05/18 12:59:45;;;;;;;3.50;1.80;;;;;;;;;;5094507;28;20414;-73
2022/05/18 13:02:32;;;;;;;3.30;1.40;;;;;;;;;;5093088;28;20375;-73
2022/05/18 13:05:00;;;;;;;2.53;1.37;;;;;;;;;;5094027;28;20504;-73
2022/05/18 13:07:26;;;;;;;5.40;1.60;;;;;;;;;;5094229;28;20809;-73
2022/05/18 13:10:09;;;;;;;2.23;1.40;;;;;;;;;;5094207;28;20948;-73
2022/05/18 13:12:40;;;;;;;1.93;1.53;;;;;;;;;;5092979;28;20415;-73
2022/05/18 13:15:25;;;;;;;3.57;1.60;;;;;;;;;;5092639;28;20431;-73
2022/05/18 13:17:54;;;;;;;2.63;1.70;;;;;;;;;;5094337;28;20997;-73
2022/05/18 13:20:29;;;;;;;3.40;1.60;;;;;;;;;;5079795;28;20424;-73
2022/05/18 13:23:03;;;;;;;1.90;1.40;;;;;;;;;;5077210;28;20434;-73
2022/05/18 13:25:33;;;;;;;2.70;1.60;;;;;;;;;;5094271;28;20938;-73
2022/05/18 13:28:01;;;;;;;1.77;1.50;;;;;;;;;;5092752;28;20887;-73
2022/05/18 13:30:36;;;;;;;2.20;1.80;;;;;;;;;;5093891;28;20403;-74
2022/05/18 13:33:04;;;;;;;2.77;1.50;;;;;;;;;;5093783;28;20951;-73
2022/05/18 13:35:30;;;;;;;3.23;1.90;;;;;;;;;;5093744;28;20431;-73
2022/05/18 13:38:03;;;;;;;2.57;2.30;;;;;;;;;;5094081;28;20407;-73
2022/05/18 13:40:30;;;;;;;2.10;1.90;;;;;;;;;;5093687;28;20407;-73
2022/05/18 13:43:00;;;;;;;2.40;1.97;;;;;;;;;;5093562;28;20443;-73
2022/05/18 13:45:28;;;;;;;4.53;1.67;;;;;;;;;;5093667;28;20422;-73
2022/05/18 13:47:55;;;;;;;4.07;2.07;;;;;;;;;;5093779;28;20415;-73
2022/05/18 13:50:31;;;;;;;4.40;2.17;;;;;;;;;;5091666;28;20841;-73
2022/05/18 13:52:59;;;;;;;5.07;2.50;;;;;;;;;;5093198;28;20478;-73
2022/05/18 13:55:26;;;;;;;3.30;2.07;;;;;;;;;;5093366;28;20414;-72
2022/05/18 13:57:54;;;;;;;5.80;2.33;;;;;;;;;;5093359;28;20471;-73
2022/05/18 14:00:32;;;;;;;4.13;2.50;;;;;;;;;;5092221;28;20498;-73
2022/05/18 14:02:59;;;;;;;4.60;1.80;;;;;;;;;;5091620;28;20447;-73
2022/05/18 14:05:29;;;;;;;3.07;1.80;;;;;;;;;;5079181;28;20454;-73
2022/05/18 14:07:55;;;;;;;4.40;2.33;;;;;;;;;;5087612;28;20434;-73
2022/05/18 14:10:22;;;;;;;6.10;2.40;;;;;;;;;;5074072;28;20423;-72
2022/05/18 14:12:49;;;;;;;5.03;2.60;;;;;;;;;;5090510;28;20419;-72
2022/05/18 14:15:16;;;;;;;2.90;2.00;;;;;;;;;;5090100;28;20461;-72
2022/05/18 14:17:42;;;;;;;3.60;2.00;;;;;;;;;;5080379;28;20422;-72
2022/05/18 14:20:18;;;;;;;4.83;2.10;;;;;;;;;;5075031;28;20498;-71
2022/05/18 14:22:48;;;;;;;2.80;2.07;;;;;;;;;;5070972;28;20967;-73
2022/05/18 14:25:15;;;;;;;5.37;2.17;;;;;;;;;;5071291;28;20423;-73
2022/05/18 14:27:43;;;;;;;2.97;1.90;;;;;;;;;;5070587;28;20561;-73
2022/05/18 14:30:15;;;;;;;2.40;1.63;;;;;;;;;;5071550;28;20910;-72
2022/05/18 14:32:46;;;;;;;3.30;2.23;;;;;;;;;;5071579;28;20411;-73
2022/05/18 14:35:14;;;;;;;3.67;2.20;;;;;;;;;;5069684;28;20439;-73
2022/05/18 14:37:43;;;;;;;2.63;2.30;;;;;;;;;;5071213;28;20818;-73
2022/05/18 14:40:10;;;;;;;3.43;1.70;;;;;;;;;;5071184;28;20477;-73
2022/05/18 14:42:46;;;;;;;2.90;2.30;;;;;;;;;;5070600;28;20469;-73
2022/05/18 14:45:19;;;;;;;5.70;2.10;;;;;;;;;;5071228;28;20446;-73
2022/05/18 14:47:46;;;;;;;2.00;1.63;;;;;;;;;;5070476;28;20455;-73
2022/05/18 14:50:15;;;;;;;1.93;1.63;;;;;;;;;;5070899;28;20784;-73
2022/05/18 14:52:51;;;;;;;3.30;2.20;;;;;;;;;;5070793;28;20412;-73
2022/05/18 14:55:24;;;;;;;5.60;1.90;;;;;;;;;;5071031;28;20435;-73
2022/05/18 14:57:50;;;;;;;2.50;1.70;;;;;;;;;;5070912;28;20431;-72
2022/05/18 15:00:23;;;;;;;4.13;2.00;;;;;;;;;;5070225;28;20488;-73
2022/05/18 15:02:51;;;;;;;5.20;2.20;;;;;;;;;;5070021;28;20430;-73
2022/05/18 15:05:20;;;;;;;4.63;2.20;;;;;;;;;;5069791;28;20466;-73
2022/05/18 15:07:47;;;;;;;2.80;1.70;;;;;;;;;;5083229;28;20466;-73
2022/05/18 15:10:19;;;;;;;3.83;1.70;;;;;;;;;;5090840;28;20415;-73
2022/05/18 15:12:48;;;;;;;2.40;2.10;;;;;;;;;;5089733;28;20506;-73